Prince Albert (Glass Field) Airport

Airport
ICAO code: 
CYPA
Summary
ICAO Region: 
NAM
Territory: 
Location: 
Prince Albert, Saskatchewan,
Elevation: 
1405 ft
Coordinates: 
Aerial View: 
53° 12' 47.844" N, 105° 40' 48.625" W
Airport BS: 
Bird Strike
Airport CFIT: 
Altimeter Temperature Error Correction
Airport GND: 
Aircraft Ground De/Anti Icing
Airport RE: 
Landing on Contaminated Runways
Airport WX: 
Cumulonimbus
Metar
Observation
CYPA 271900Z 29013KT 15SM SKC M02/M11 A3009 RMK SLP217
Station
Prince Albert, Sask.
Date/Time
2021-11-27 19:00:00
Wind direction
290°
Wind speed
13 kts
Lowest cloud amount
n/a
Temperature
-2°C
Dew point
-11°C
Humidity
50%
Weather condition
n/a

Description

Regional airport serving Prince Albert, Saskatchewan, Canada.

Climatology

Humid Continental climate (Köppen climate classification Dfb) - Variable weather patterns and a large seasonal temperature variance. Summers are often warm and humid with frequent thunderstorms and winters can be very cold with frequent snowfall and persistent snow cover.

Runways

Designator Length Width Surface Rops
16/34 762 30 GRS No/No
8/26 1524 46 ASP Yes/Yes
Airport map: 
Aerial View: 

SKYbrary Partners:

Safety knowledge contributed by: